sensor_id;sensor_type;location;lat;lon;timestamp;pressure;altitude;pressure_sealevel;temperature;humidity
11343;BME280;5726;42.160;24.746;2023-05-25T00:00:07;99455.38;;;20.08;88.68
11343;BME280;5726;42.160;24.746;2023-05-25T00:02:34;99441.25;;;20.18;87.99
11343;BME280;5726;42.160;24.746;2023-05-25T00:04:59;99447.53;;;20.37;86.97
11343;BME280;5726;42.160;24.746;2023-05-25T00:07:26;99444.91;;;20.10;88.86
11343;BME280;5726;42.160;24.746;2023-05-25T00:09:52;99440.75;;;19.70;92.04
11343;BME280;5726;42.160;24.746;2023-05-25T00:12:17;99444.16;;;19.24;95.91
11343;BME280;5726;42.160;24.746;2023-05-25T00:14:43;99445.72;;;19.53;94.79
11343;BME280;5726;42.160;24.746;2023-05-25T00:17:08;99444.75;;;19.45;95.74
11343;BME280;5726;42.160;24.746;2023-05-25T00:19:36;99451.94;;;19.53;95.70
11343;BME280;5726;42.160;24.746;2023-05-25T00:22:01;99448.13;;;19.85;93.83
11343;BME280;5726;42.160;24.746;2023-05-25T00:24:30;99456.09;;;19.90;92.98
11343;BME280;5726;42.160;24.746;2023-05-25T00:26:56;99449.47;;;19.91;93.28
11343;BME280;5726;42.160;24.746;2023-05-25T00:29:22;99447.06;;;19.59;95.58
11343;BME280;5726;42.160;24.746;2023-05-25T00:31:47;99441.16;;;19.57;95.69
11343;BME280;5726;42.160;24.746;2023-05-25T00:34:15;99439.88;;;19.39;97.74
11343;BME280;5726;42.160;24.746;2023-05-25T00:36:40;99440.28;;;19.53;96.88
11343;BME280;5726;42.160;24.746;2023-05-25T00:39:07;99446.38;;;19.62;96.20
11343;BME280;5726;42.160;24.746;2023-05-25T00:41:35;99441.56;;;19.43;97.28
11343;BME280;5726;42.160;24.746;2023-05-25T00:44:06;99440.97;;;19.22;99.16
11343;BME280;5726;42.160;24.746;2023-05-25T00:46:33;99437.91;;;19.24;99.95
11343;BME280;5726;42.160;24.746;2023-05-25T00:48:59;99438.63;;;19.21;99.99
11343;BME280;5726;42.160;24.746;2023-05-25T00:51:25;99441.47;;;19.40;98.96
11343;BME280;5726;42.160;24.746;2023-05-25T00:53:51;99438.78;;;19.55;96.98
11343;BME280;5726;42.160;24.746;2023-05-25T00:56:18;99440.09;;;19.46;97.94
11343;BME280;5726;42.160;24.746;2023-05-25T00:58:50;99446.38;;;19.62;96.35
11343;BME280;5726;42.160;24.746;2023-05-25T01:01:19;99445.72;;;19.53;96.60
11343;BME280;5726;42.160;24.746;2023-05-25T01:03:48;99445.00;;;19.01;100.00
11343;BME280;5726;42.160;24.746;2023-05-25T01:06:19;99447.97;;;18.96;100.00
11343;BME280;5726;42.160;24.746;2023-05-25T01:08:53;99443.19;;;19.17;99.14
11343;BME280;5726;42.160;24.746;2023-05-25T01:11:25;99431.25;;;18.82;100.00
11343;BME280;5726;42.160;24.746;2023-05-25T01:13:52;99437.59;;;18.74;100.00
11343;BME280;5726;42.160;24.746;2023-05-25T01:16:19;99439.78;;;18.45;100.00
11343;BME280;5726;42.160;24.746;2023-05-25T01:18:45;99435.63;;;18.48;100.00
11343;BME280;5726;42.160;24.746;2023-05-25T01:21:28;99433.09;;;18.67;100.00
11343;BME280;5726;42.160;24.746;2023-05-25T01:26:31;99431.97;;;18.56;100.00
11343;BME280;5726;42.160;24.746;2023-05-25T01:29:00;99437.22;;;18.25;100.00
11343;BME280;5726;42.160;24.746;2023-05-25T01:31:26;99427.03;;;18.46;100.00
11343;BME280;5726;42.160;24.746;2023-05-25T01:33:53;99431.91;;;18.28;100.00
11343;BME280;5726;42.160;24.746;2023-05-25T01:36:20;99429.84;;;18.49;100.00
11343;BME280;5726;42.160;24.746;2023-05-25T01:38:45;99430.66;;;18.26;100.00
11343;BME280;5726;42.160;24.746;2023-05-25T01:41:11;99424.97;;;18.07;100.00
11343;BME280;5726;42.160;24.746;2023-05-25T01:43:36;99428.34;;;17.80;100.00
11343;BME280;5726;42.160;24.746;2023-05-25T01:46:14;99430.84;;;17.85;100.00
11343;BME280;5726;42.160;24.746;2023-05-25T01:48:54;99427.69;;;17.95;100.00
11343;BME280;5726;42.160;24.746;2023-05-25T01:51:38;99430.78;;;18.18;100.00
11343;BME280;5726;42.160;24.746;2023-05-25T01:54:18;99423.66;;;18.37;100.00
11343;BME280;5726;42.160;24.746;2023-05-25T01:56:45;99425.69;;;18.16;100.00
11343;BME280;5726;42.160;24.746;2023-05-25T01:59:13;99431.88;;;18.40;100.00
11343;BME280;5726;42.160;24.746;2023-05-25T02:01:41;99434.22;;;17.94;100.00
11343;BME280;5726;42.160;24.746;2023-05-25T02:04:07;99436.66;;;18.20;100.00
11343;BME280;5726;42.160;24.746;2023-05-25T02:06:34;99430.78;;;18.18;100.00
11343;BME280;5726;42.160;24.746;2023-05-25T02:09:00;99438.19;;;17.85;100.00
11343;BME280;5726;42.160;24.746;2023-05-25T02:11:25;99444.72;;;17.72;100.00
11343;BME280;5726;42.160;24.746;2023-05-25T02:13:51;99448.00;;;17.77;100.00
11343;BME280;5726;42.160;24.746;2023-05-25T02:16:17;99446.31;;;17.73;100.00
11343;BME280;5726;42.160;24.746;2023-05-25T02:18:42;99442.91;;;17.64;100.00
11343;BME280;5726;42.160;24.746;2023-05-25T02:21:10;99441.91;;;17.80;100.00
11343;BME280;5726;42.160;24.746;2023-05-25T02:23:36;99441.91;;;17.80;100.00
11343;BME280;5726;42.160;24.746;2023-05-25T02:26:01;99453.91;;;17.91;100.00
11343;BME280;5726;42.160;24.746;2023-05-25T02:28:27;99453.78;;;17.88;100.00
11343;BME280;5726;42.160;24.746;2023-05-25T02:30:52;99447.91;;;18.10;100.00
11343;BME280;5726;42.160;24.746;2023-05-25T02:33:18;99453.50;;;18.13;100.00
11343;BME280;5726;42.160;24.746;2023-05-25T02:35:43;99449.16;;;18.12;100.00
11343;BME280;5726;42.160;24.746;2023-05-25T02:38:08;99449.56;;;17.78;100.00
11343;BME280;5726;42.160;24.746;2023-05-25T02:40:34;99441.41;;;17.67;100.00
11343;BME280;5726;42.160;24.746;2023-05-25T02:42:59;99452.63;;;17.33;100.00
11343;BME280;5726;42.160;24.746;2023-05-25T02:45:25;99443.94;;;17.39;100.00
11343;BME280;5726;42.160;24.746;2023-05-25T02:47:50;99447.16;;;17.53;100.00
11343;BME280;5726;42.160;24.746;2023-05-25T02:50:16;99448.53;;;17.71;100.00
11343;BME280;5726;42.160;24.746;2023-05-25T02:52:41;99447.34;;;17.80;100.00
11343;BME280;5726;42.160;24.746;2023-05-25T02:55:07;99455.72;;;17.99;100.00
11343;BME280;5726;42.160;24.746;2023-05-25T02:57:37;99452.56;;;18.09;100.00
11343;BME280;5726;42.160;24.746;2023-05-25T03:00:04;99463.13;;;18.22;100.00
11343;BME280;5726;42.160;24.746;2023-05-25T03:02:31;99464.66;;;18.12;100.00
11343;BME280;5726;42.160;24.746;2023-05-25T03:04:57;99457.78;;;18.14;100.00
11343;BME280;5726;42.160;24.746;2023-05-25T03:07:24;99462.66;;;18.21;100.00
11343;BME280;5726;42.160;24.746;2023-05-25T03:09:52;99474.06;;;18.14;100.00
11343;BME280;5726;42.160;24.746;2023-05-25T03:12:18;99470.63;;;18.05;100.00
11343;BME280;5726;42.160;24.746;2023-05-25T03:14:43;99475.38;;;18.08;100.00
11343;BME280;5726;42.160;24.746;2023-05-25T03:17:08;99474.66;;;18.31;100.00
11343;BME280;5726;42.160;24.746;2023-05-25T03:19:34;99479.50;;;18.38;99.85
11343;BME280;5726;42.160;24.746;2023-05-25T03:22:01;99483.13;;;18.54;98.12
11343;BME280;5726;42.160;24.746;2023-05-25T03:24:27;99487.81;;;18.92;95.11
11343;BME280;5726;42.160;24.746;2023-05-25T03:26:53;99483.19;;;18.93;94.65
11343;BME280;5726;42.160;24.746;2023-05-25T03:29:18;99484.19;;;19.12;93.91
11343;BME280;5726;42.160;24.746;2023-05-25T03:31:44;99488.41;;;19.37;93.53
11343;BME280;5726;42.160;24.746;2023-05-25T03:34:10;99490.59;;;19.59;91.14
11343;BME280;5726;42.160;24.746;2023-05-25T03:36:36;99480.56;;;19.63;89.10
11343;BME280;5726;42.160;24.746;2023-05-25T03:39:03;99487.72;;;19.82;87.00
11343;BME280;5726;42.160;24.746;2023-05-25T03:41:29;99487.28;;;19.80;87.96
11343;BME280;5726;42.160;24.746;2023-05-25T03:43:54;99476.09;;;19.55;88.72
11343;BME280;5726;42.160;24.746;2023-05-25T03:46:20;99478.03;;;19.69;87.63
11343;BME280;5726;42.160;24.746;2023-05-25T03:48:45;99478.25;;;19.76;87.63
11343;BME280;5726;42.160;24.746;2023-05-25T03:51:11;99480.41;;;19.56;89.45
11343;BME280;5726;42.160;24.746;2023-05-25T03:53:36;99482.78;;;19.72;88.81
11343;BME280;5726;42.160;24.746;2023-05-25T03:56:02;99487.53;;;19.75;87.74
11343;BME280;5726;42.160;24.746;2023-05-25T03:58:27;99487.16;;;20.04;86.80
11343;BME280;5726;42.160;24.746;2023-05-25T04:00:53;99495.25;;;20.16;85.52
11343;BME280;5726;42.160;24.746;2023-05-25T04:03:19;99494.53;;;20.50;84.49
11343;BME280;5726;42.160;24.746;2023-05-25T04:05:44;99488.72;;;20.51;83.79
11343;BME280;5726;42.160;24.746;2023-05-25T04:08:13;99490.41;;;20.56;82.87
11343;BME280;5726;42.160;24.746;2023-05-25T04:10:38;99490.91;;;20.76;81.29
11343;BME280;5726;42.160;24.746;2023-05-25T04:13:05;99487.78;;;20.44;83.17
11343;BME280;5726;42.160;24.746;2023-05-25T04:15:31;99486.72;;;20.33;83.69
11343;BME280;5726;42.160;24.746;2023-05-25T04:17:58;99492.16;;;20.33;82.89
11343;BME280;5726;42.160;24.746;2023-05-25T04:20:24;99490.59;;;20.32;83.33
11343;BME280;5726;42.160;24.746;2023-05-25T04:22:49;99485.06;;;20.44;82.35
11343;BME280;5726;42.160;24.746;2023-05-25T04:25:14;99492.16;;;20.33;82.61
11343;BME280;5726;42.160;24.746;2023-05-25T04:27:41;99499.25;;;20.37;83.19
11343;BME280;5726;42.160;24.746;2023-05-25T04:30:07;99503.59;;;20.23;84.81
11343;BME280;5726;42.160;24.746;2023-05-25T04:32:32;99501.28;;;20.56;83.88
11343;BME280;5726;42.160;24.746;2023-05-25T04:35:01;99505.06;;;20.51;83.68
11343;BME280;5726;42.160;24.746;2023-05-25T04:37:27;99501.09;;;20.64;83.95
11343;BME280;5726;42.160;24.746;2023-05-25T04:39:53;99509.75;;;21.00;82.07
11343;BME280;5726;42.160;24.746;2023-05-25T04:42:18;99504.53;;;21.29;79.20
11343;BME280;5726;42.160;24.746;2023-05-25T04:44:48;99501.28;;;21.05;80.20
11343;BME280;5726;42.160;24.746;2023-05-25T04:47:13;99507.41;;;20.83;81.70
11343;BME280;5726;42.160;24.746;2023-05-25T04:49:40;99502.00;;;21.02;83.85
11343;BME280;5726;42.160;24.746;2023-05-25T04:52:06;99499.78;;;21.26;80.74
11343;BME280;5726;42.160;24.746;2023-05-25T04:54:31;99506.66;;;21.55;79.21
11343;BME280;5726;42.160;24.746;2023-05-25T04:56:56;99497.25;;;21.93;77.67
11343;BME280;5726;42.160;24.746;2023-05-25T04:59:22;99503.31;;;22.24;75.49
11343;BME280;5726;42.160;24.746;2023-05-25T05:01:47;99499.78;;;22.46;75.40
11343;BME280;5726;42.160;24.746;2023-05-25T05:04:13;99504.31;;;21.94;76.19
11343;BME280;5726;42.160;24.746;2023-05-25T05:06:40;99501.75;;;21.63;79.09
11343;BME280;5726;42.160;24.746;2023-05-25T05:09:06;99505.03;;;21.91;78.38
11343;BME280;5726;42.160;24.746;2023-05-25T05:11:31;99513.00;;;22.00;78.25
11343;BME280;5726;42.160;24.746;2023-05-25T05:13:57;99509.75;;;21.94;77.93
11343;BME280;5726;42.160;24.746;2023-05-25T05:16:23;99506.44;;;22.04;77.84
11343;BME280;5726;42.160;24.746;2023-05-25T05:18:49;99505.03;;;21.91;78.89
11343;BME280;5726;42.160;24.746;2023-05-25T05:21:14;99505.66;;;22.26;77.79
11343;BME280;5726;42.160;24.746;2023-05-25T05:23:43;99499.78;;;22.46;77.06
11343;BME280;5726;42.160;24.746;2023-05-25T05:26:08;99502.00;;;22.63;75.25
11343;BME280;5726;42.160;24.746;2023-05-25T05:28:36;99508.16;;;22.82;73.72
11343;BME280;5726;42.160;24.746;2023-05-25T05:31:01;99511.94;;;22.74;73.43
11343;BME280;5726;42.160;24.746;2023-05-25T05:33:27;99509.69;;;23.06;72.57
11343;BME280;5726;42.160;24.746;2023-05-25T05:35:52;99518.81;;;23.16;71.94
11343;BME280;5726;42.160;24.746;2023-05-25T05:38:18;99513.13;;;22.99;73.20
11343;BME280;5726;42.160;24.746;2023-05-25T05:40:44;99514.69;;;23.00;72.50
11343;BME280;5726;42.160;24.746;2023-05-25T05:43:11;99512.00;;;23.33;71.13
11343;BME280;5726;42.160;24.746;2023-05-25T05:45:37;99506.97;;;23.35;70.68
11343;BME280;5726;42.160;24.746;2023-05-25T05:48:02;99510.44;;;23.32;71.45
11343;BME280;5726;42.160;24.746;2023-05-25T05:50:34;99511.22;;;23.32;71.27
11343;BME280;5726;42.160;24.746;2023-05-25T05:52:59;99513.69;;;23.41;70.92
11343;BME280;5726;42.160;24.746;2023-05-25T05:55:25;99510.31;;;23.83;69.93
11343;BME280;5726;42.160;24.746;2023-05-25T05:57:50;99512.47;;;23.38;71.67
11343;BME280;5726;42.160;24.746;2023-05-25T06:00:16;99509.66;;;23.31;71.73
11343;BME280;5726;42.160;24.746;2023-05-25T06:02:42;99504.78;;;23.18;70.74
11343;BME280;5726;42.160;24.746;2023-05-25T06:05:08;99517.19;;;23.12;69.35
11343;BME280;5726;42.160;24.746;2023-05-25T06:07:33;99512.75;;;23.01;70.30
11343;BME280;5726;42.160;24.746;2023-05-25T06:10:00;99516.38;;;23.08;69.21
11343;BME280;5726;42.160;24.746;2023-05-25T06:12:25;99511.94;;;23.26;67.87
11343;BME280;5726;42.160;24.746;2023-05-25T06:14:51;99516.97;;;22.95;68.88
11343;BME280;5726;42.160;24.746;2023-05-25T06:17:17;99509.50;;;23.21;68.93
11343;BME280;5726;42.160;24.746;2023-05-25T06:19:43;99509.34;;;23.36;68.40
11343;BME280;5726;42.160;24.746;2023-05-25T06:22:08;99522.47;;;23.56;67.74
11343;BME280;5726;42.160;24.746;2023-05-25T06:24:34;99516.50;;;23.48;68.28
11343;BME280;5726;42.160;24.746;2023-05-25T06:27:00;99525.13;;;23.79;66.58
11343;BME280;5726;42.160;24.746;2023-05-25T06:29:27;99526.22;;;23.71;67.84
11343;BME280;5726;42.160;24.746;2023-05-25T06:31:53;99524.97;;;23.65;67.69
11343;BME280;5726;42.160;24.746;2023-05-25T06:34:18;99533.75;;;23.81;67.19
11343;BME280;5726;42.160;24.746;2023-05-25T06:36:43;99531.47;;;23.86;65.42
11343;BME280;5726;42.160;24.746;2023-05-25T06:39:09;99533.81;;;23.88;66.52
11343;BME280;5726;42.160;24.746;2023-05-25T06:41:36;99534.44;;;24.07;64.54
11343;BME280;5726;42.160;24.746;2023-05-25T06:44:02;99533.94;;;23.98;64.95
11343;BME280;5726;42.160;24.746;2023-05-25T06:46:27;99527.03;;;24.11;65.55
11343;BME280;5726;42.160;24.746;2023-05-25T06:48:53;99525.81;;;24.45;65.02
11343;BME280;5726;42.160;24.746;2023-05-25T06:51:19;99519.28;;;24.20;66.40
11343;BME280;5726;42.160;24.746;2023-05-25T06:53:45;99520.47;;;24.62;63.86
11343;BME280;5726;42.160;24.746;2023-05-25T06:56:10;99518.72;;;24.90;62.61
11343;BME280;5726;42.160;24.746;2023-05-25T06:58:36;99516.13;;;25.11;61.79
11343;BME280;5726;42.160;24.746;2023-05-25T07:01:01;99519.63;;;25.08;61.85
11343;BME280;5726;42.160;24.746;2023-05-25T07:03:27;99517.00;;;25.29;60.85
11343;BME280;5726;42.160;24.746;2023-05-25T07:05:52;99513.97;;;25.48;60.81
11343;BME280;5726;42.160;24.746;2023-05-25T07:08:18;99511.84;;;25.10;62.24
11343;BME280;5726;42.160;24.746;2023-05-25T07:10:43;99521.28;;;25.16;61.04
11343;BME280;5726;42.160;24.746;2023-05-25T07:13:09;99514.69;;;25.31;60.40
11343;BME280;5726;42.160;24.746;2023-05-25T07:15:35;99519.13;;;25.59;58.26
11343;BME280;5726;42.160;24.746;2023-05-25T07:18:00;99514.84;;;25.65;56.77
11343;BME280;5726;42.160;24.746;2023-05-25T07:20:26;99516.47;;;25.87;56.30
11343;BME280;5726;42.160;24.746;2023-05-25T07:22:51;99514.13;;;25.93;57.33
11343;BME280;5726;42.160;24.746;2023-05-25T07:25:17;99518.88;;;26.06;56.61
11343;BME280;5726;42.160;24.746;2023-05-25T07:27:47;99518.56;;;26.56;55.76
11343;BME280;5726;42.160;24.746;2023-05-25T07:30:13;99516.22;;;26.96;53.67
11343;BME280;5726;42.160;24.746;2023-05-25T07:32:38;99518.16;;;26.75;54.52
11343;BME280;5726;42.160;24.746;2023-05-25T07:35:05;99516.56;;;27.08;52.61
11343;BME280;5726;42.160;24.746;2023-05-25T07:37:30;99518.16;;;26.92;53.42
11343;BME280;5726;42.160;24.746;2023-05-25T07:39:56;99512.63;;;26.85;53.79
11343;BME280;5726;42.160;24.746;2023-05-25T07:42:21;99523.66;;;26.64;55.71
11343;BME280;5726;42.160;24.746;2023-05-25T07:44:47;99513.84;;;26.91;54.07
11343;BME280;5726;42.160;24.746;2023-05-25T07:47:13;99520.53;;;26.94;53.54
11343;BME280;5726;42.160;24.746;2023-05-25T07:49:38;99518.91;;;27.10;54.58
11343;BME280;5726;42.160;24.746;2023-05-25T07:52:03;99514.25;;;26.65;53.94
11343;BME280;5726;42.160;24.746;2023-05-25T07:54:30;99513.84;;;26.53;55.69
11343;BME280;5726;42.160;24.746;2023-05-25T07:56:55;99513.03;;;26.87;54.49
11343;BME280;5726;42.160;24.746;2023-05-25T07:59:21;99513.44;;;26.61;55.30
11343;BME280;5726;42.160;24.746;2023-05-25T08:01:46;99509.88;;;26.85;56.11
11343;BME280;5726;42.160;24.746;2023-05-25T08:04:12;99511.88;;;26.92;55.67
11343;BME280;5726;42.160;24.746;2023-05-25T08:06:37;99513.41;;;27.03;56.25
11343;BME280;5726;42.160;24.746;2023-05-25T08:09:03;99524.38;;;27.24;56.12
11343;BME280;5726;42.160;24.746;2023-05-25T08:11:29;99518.88;;;27.24;55.76
11343;BME280;5726;42.160;24.746;2023-05-25T08:13:55;99523.91;;;27.46;56.50
11343;BME280;5726;42.160;24.746;2023-05-25T08:16:21;99519.22;;;27.40;56.12
11343;BME280;5726;42.160;24.746;2023-05-25T08:18:46;99519.28;;;27.26;56.23
11343;BME280;5726;42.160;24.746;2023-05-25T08:21:12;99508.75;;;26.45;58.05
11343;BME280;5726;42.160;24.746;2023-05-25T08:23:39;99506.75;;;26.55;58.27
11343;BME280;5726;42.160;24.746;2023-05-25T08:26:07;99509.13;;;26.67;57.30
11343;BME280;5726;42.160;24.746;2023-05-25T08:28:32;99512.25;;;26.83;58.41
11343;BME280;5726;42.160;24.746;2023-05-25T08:30:58;99503.25;;;26.72;57.62
11343;BME280;5726;42.160;24.746;2023-05-25T08:33:23;99501.66;;;26.92;57.06
11343;BME280;5726;42.160;24.746;2023-05-25T08:35:49;99505.56;;;26.98;57.01
11343;BME280;5726;42.160;24.746;2023-05-25T08:38:14;99502.44;;;26.96;57.56
11343;BME280;5726;42.160;24.746;2023-05-25T08:40:40;99507.03;;;27.37;56.53
11343;BME280;5726;42.160;24.746;2023-05-25T08:43:07;99505.47;;;27.33;55.76
11343;BME280;5726;42.160;24.746;2023-05-25T08:45:32;99499.50;;;27.62;55.57
11343;BME280;5726;42.160;24.746;2023-05-25T08:47:58;99498.06;;;28.04;54.46
11343;BME280;5726;42.160;24.746;2023-05-25T08:50:25;99502.25;;;28.30;53.06
11343;BME280;5726;42.160;24.746;2023-05-25T08:52:52;99493.94;;;28.33;52.49
11343;BME280;5726;42.160;24.746;2023-05-25T08:55:19;99491.59;;;28.32;52.06
11343;BME280;5726;42.160;24.746;2023-05-25T08:57:54;99499.03;;;28.38;51.61
11343;BME280;5726;42.160;24.746;2023-05-25T09:00:30;99496.91;;;28.56;51.61
11343;BME280;5726;42.160;24.746;2023-05-25T09:03:14;99496.91;;;28.56;51.17
11343;BME280;5726;42.160;24.746;2023-05-25T09:05:42;99490.81;;;28.78;49.58
11343;BME280;5726;42.160;24.746;2023-05-25T09:08:08;99490.81;;;28.78;52.48
11343;BME280;5726;42.160;24.746;2023-05-25T09:10:37;99487.53;;;28.93;50.83
11343;BME280;5726;42.160;24.746;2023-05-25T09:13:03;99491.50;;;29.29;49.43
11343;BME280;5726;42.160;24.746;2023-05-25T09:15:30;99485.28;;;29.51;50.50
11343;BME280;5726;42.160;24.746;2023-05-25T09:17:56;99483.53;;;29.94;48.95
11343;BME280;5726;42.160;24.746;2023-05-25T09:20:22;99475.63;;;29.96;46.22
11343;BME280;5726;42.160;24.746;2023-05-25T09:22:48;99472.59;;;29.87;45.90
11343;BME280;5726;42.160;24.746;2023-05-25T09:25:17;99475.28;;;29.61;44.00
11343;BME280;5726;42.160;24.746;2023-05-25T09:27:46;99462.34;;;29.54;44.48
11343;BME280;5726;42.160;24.746;2023-05-25T09:30:11;99474.25;;;29.81;43.78
11343;BME280;5726;42.160;24.746;2023-05-25T09:32:37;99481.59;;;29.61;43.98
11343;BME280;5726;42.160;24.746;2023-05-25T09:35:07;99467.94;;;29.81;43.33
11343;BME280;5726;42.160;24.746;2023-05-25T09:37:32;99469.63;;;29.71;42.47
11343;BME280;5726;42.160;24.746;2023-05-25T09:39:58;99468.47;;;29.69;43.28
11343;BME280;5726;42.160;24.746;2023-05-25T09:42:23;99463.03;;;29.32;44.21
11343;BME280;5726;42.160;24.746;2023-05-25T09:44:49;99457.44;;;29.02;43.89
11343;BME280;5726;42.160;24.746;2023-05-25T09:47:14;99462.66;;;28.93;44.17
11343;BME280;5726;42.160;24.746;2023-05-25T09:49:42;99448.44;;;28.95;44.42
11343;BME280;5726;42.160;24.746;2023-05-25T09:52:10;99445.88;;;29.11;44.80
11343;BME280;5726;42.160;24.746;2023-05-25T09:54:36;99438.63;;;29.27;44.32
11343;BME280;5726;42.160;24.746;2023-05-25T09:57:03;99436.59;;;29.31;44.98
11343;BME280;5726;42.160;24.746;2023-05-25T09:59:30;99433.69;;;29.42;44.32
11343;BME280;5726;42.160;24.746;2023-05-25T10:01:56;99434.81;;;29.47;43.15
11343;BME280;5726;42.160;24.746;2023-05-25T10:04:22;99436.25;;;29.26;42.60
11343;BME280;5726;42.160;24.746;2023-05-25T10:06:47;99437.13;;;28.86;43.90
11343;BME280;5726;42.160;24.746;2023-05-25T10:09:19;99431.31;;;28.74;43.71
11343;BME280;5726;42.160;24.746;2023-05-25T10:11:45;99424.19;;;28.76;45.30
11343;BME280;5726;42.160;24.746;2023-05-25T10:14:19;99437.47;;;28.88;44.16
11343;BME280;5726;42.160;24.746;2023-05-25T10:16:47;99438.38;;;28.78;41.17
11343;BME280;5726;42.160;24.746;2023-05-25T10:22:03;99430.06;;;28.78;42.88
11343;BME280;5726;42.160;24.746;2023-05-25T10:24:44;99435.28;;;28.69;42.12
11343;BME280;5726;42.160;24.746;2023-05-25T10:27:18;99418.19;;;28.44;42.40
11343;BME280;5726;42.160;24.746;2023-05-25T10:29:46;99436.88;;;28.70;42.88
11343;BME280;5726;42.160;24.746;2023-05-25T10:32:12;99445.81;;;28.85;42.57
11343;BME280;5726;42.160;24.746;2023-05-25T10:34:40;99453.03;;;28.72;42.33
11343;BME280;5726;42.160;24.746;2023-05-25T10:37:06;99447.94;;;28.63;44.10
11343;BME280;5726;42.160;24.746;2023-05-25T10:39:33;99446.19;;;28.43;45.37
11343;BME280;5726;42.160;24.746;2023-05-25T10:42:01;99438.78;;;28.33;45.06
11343;BME280;5726;42.160;24.746;2023-05-25T10:44:28;99427.03;;;28.26;45.60
11343;BME280;5726;42.160;24.746;2023-05-25T10:46:55;99425.94;;;28.13;45.42
11343;BME280;5726;42.160;24.746;2023-05-25T10:49:29;99431.09;;;28.04;45.97
11343;BME280;5726;42.160;24.746;2023-05-25T10:51:57;99426.91;;;27.86;46.25
11343;BME280;5726;42.160;24.746;2023-05-25T10:54:28;99429.03;;;27.64;47.21
11343;BME280;5726;42.160;24.746;2023-05-25T10:57:11;99433.03;;;27.43;48.54
11343;BME280;5726;42.160;24.746;2023-05-25T10:59:41;99433.03;;;27.43;49.28
11343;BME280;5726;42.160;24.746;2023-05-25T11:02:09;99435.94;;;27.08;53.56
11343;BME280;5726;42.160;24.746;2023-05-25T11:04:35;99439.84;;;27.10;54.81
11343;BME280;5726;42.160;24.746;2023-05-25T11:09:28;99434.00;;;27.01;56.26
11343;BME280;5726;42.160;24.746;2023-05-25T11:19:51;99434.06;;;26.60;57.15
11343;BME280;5726;42.160;24.746;2023-05-25T11:24:50;99443.50;;;26.52;57.42
11343;BME280;5726;42.160;24.746;2023-05-25T11:27:23;99438.03;;;26.48;58.58
11343;BME280;5726;42.160;24.746;2023-05-25T11:29:49;99447.06;;;26.42;60.68
11343;BME280;5726;42.160;24.746;2023-05-25T11:32:15;99451.34;;;26.12;63.67
11343;BME280;5726;42.160;24.746;2023-05-25T11:34:41;99449.75;;;25.97;64.92
11343;BME280;5726;42.160;24.746;2023-05-25T11:37:12;99440.31;;;25.84;66.31
11343;BME280;5726;42.160;24.746;2023-05-25T11:39:40;99441.13;;;25.95;66.47
11343;BME280;5726;42.160;24.746;2023-05-25T11:42:06;99433.66;;;26.20;65.70
11343;BME280;5726;42.160;24.746;2023-05-25T11:44:35;99435.59;;;25.71;67.59
11343;BME280;5726;42.160;24.746;2023-05-25T11:47:06;99428.53;;;25.70;67.89
11343;BME280;5726;42.160;24.746;2023-05-25T11:49:33;99430.09;;;25.71;68.21
11343;BME280;5726;42.160;24.746;2023-05-25T11:52:03;99426.22;;;25.89;66.67
11343;BME280;5726;42.160;24.746;2023-05-25T11:54:31;99426.25;;;26.34;66.36
11343;BME280;5726;42.160;24.746;2023-05-25T11:56:58;99424.66;;;26.26;63.44
11343;BME280;5726;42.160;24.746;2023-05-25T11:59:33;99415.59;;;26.60;64.42
11343;BME280;5726;42.160;24.746;2023-05-25T12:02:02;99416.03;;;26.48;64.17
11343;BME280;5726;42.160;24.746;2023-05-25T12:04:29;99419.53;;;26.52;62.35
11343;BME280;5726;42.160;24.746;2023-05-25T12:07:04;99414.44;;;26.54;62.59
11343;BME280;5726;42.160;24.746;2023-05-25T12:09:29;99410.44;;;26.76;61.06
11343;BME280;5726;42.160;24.746;2023-05-25T12:11:55;99405.63;;;27.15;60.18
11343;BME280;5726;42.160;24.746;2023-05-25T12:14:21;99403.19;;;27.31;58.95
11343;BME280;5726;42.160;24.746;2023-05-25T12:16:48;99403.09;;;27.44;58.96
11343;BME280;5726;42.160;24.746;2023-05-25T12:19:14;99394.38;;;27.63;57.45
11343;BME280;5726;42.160;24.746;2023-05-25T12:21:40;99400.06;;;27.29;55.63
11343;BME280;5726;42.160;24.746;2023-05-25T12:24:07;99405.47;;;27.53;55.36
11343;BME280;5726;42.160;24.746;2023-05-25T12:26:33;99406.91;;;27.71;54.65
11343;BME280;5726;42.160;24.746;2023-05-25T12:29:05;99406.28;;;28.07;53.75
11343;BME280;5726;42.160;24.746;2023-05-25T12:31:32;99406.63;;;28.13;54.15
11343;BME280;5726;42.160;24.746;2023-05-25T12:34:11;99401.97;;;28.03;53.86
11343;BME280;5726;42.160;24.746;2023-05-25T12:39:08;99397.22;;;28.10;55.93
11343;BME280;5726;42.160;24.746;2023-05-25T12:41:45;99397.53;;;28.16;55.35
11343;BME280;5726;42.160;24.746;2023-05-25T12:46:53;99404.50;;;27.80;55.86
11343;BME280;5726;42.160;24.746;2023-05-25T12:51:51;99402.25;;;28.22;52.36
11343;BME280;5726;42.160;24.746;2023-05-25T12:54:35;99399.91;;;28.57;49.95
11343;BME280;5726;42.160;24.746;2023-05-25T12:57:01;99393.97;;;28.22;49.00
11343;BME280;5726;42.160;24.746;2023-05-25T12:59:28;99398.81;;;28.01;48.28
11343;BME280;5726;42.160;24.746;2023-05-25T13:01:55;99392.25;;;27.88;48.44
11343;BME280;5726;42.160;24.746;2023-05-25T13:04:20;99399.19;;;27.52;49.23
11343;BME280;5726;42.160;24.746;2023-05-25T13:06:47;99401.69;;;27.16;52.52
11343;BME280;5726;42.160;24.746;2023-05-25T13:09:13;99406.53;;;26.70;54.29
11343;BME280;5726;42.160;24.746;2023-05-25T13:11:38;99407.38;;;26.36;56.93
11343;BME280;5726;42.160;24.746;2023-05-25T13:14:03;99407.34;;;25.81;60.61
11343;BME280;5726;42.160;24.746;2023-05-25T13:16:32;99397.88;;;25.61;61.93
11343;BME280;5726;42.160;24.746;2023-05-25T13:18:58;99413.56;;;25.57;62.55
11343;BME280;5726;42.160;24.746;2023-05-25T13:21:24;99408.84;;;25.50;62.81